createdAt,value
2017-11-15T00:02:11.913Z,61.80
2017-11-15T00:04:38.117Z,61.30
2017-11-15T00:07:04.337Z,66.67
2017-11-15T00:09:30.585Z,62.47
2017-11-15T00:11:56.764Z,52.57
2017-11-15T00:14:22.991Z,56.57
2017-11-15T00:16:49.162Z,56.23
2017-11-15T00:19:16.119Z,64.90
2017-11-15T00:21:42.323Z,59.57
2017-11-15T00:24:09.297Z,60.27
2017-11-15T00:26:35.482Z,63.43
2017-11-15T00:29:01.706Z,61.17
2017-11-15T00:31:27.895Z,53.50
2017-11-15T00:33:54.137Z,53.33
2017-11-15T00:36:20.329Z,55.80
2017-11-15T00:38:46.587Z,53.87
2017-11-15T00:41:12.802Z,54.63
2017-11-15T00:43:39.115Z,60.43
2017-11-15T00:46:05.313Z,46.50
2017-11-15T00:48:31.546Z,55.73
2017-11-15T00:50:58.482Z,50.40
2017-11-15T00:53:24.694Z,43.47
2017-11-15T00:55:50.892Z,48.10
2017-11-15T00:58:17.095Z,46.97
2017-11-15T01:00:44.050Z,48.47
2017-11-15T01:03:10.242Z,47.87
2017-11-15T01:05:36.450Z,48.30
2017-11-15T01:08:02.651Z,48.13
2017-11-15T01:10:28.872Z,63.90
2017-11-15T01:12:55.086Z,47.30
2017-11-15T01:15:21.302Z,44.00
2017-11-15T01:17:48.221Z,40.20
2017-11-15T01:20:14.450Z,40.03
2017-11-15T01:22:40.630Z,45.13
2017-11-15T01:25:06.858Z,41.60
2017-11-15T01:27:33.094Z,47.50
2017-11-15T01:29:59.305Z,47.37
2017-11-15T01:32:25.502Z,49.67
2017-11-15T01:34:52.477Z,48.20
2017-11-15T01:37:18.719Z,48.20
2017-11-15T01:39:44.993Z,48.17
2017-11-15T01:42:11.234Z,42.37
2017-11-15T01:44:38.241Z,48.90
2017-11-15T01:47:04.466Z,49.33
2017-11-15T01:49:30.702Z,44.70
2017-11-15T01:51:56.901Z,42.93
2017-11-15T01:54:23.166Z,43.97
2017-11-15T01:56:49.385Z,44.37
2017-11-15T01:59:15.622Z,44.73
2017-11-15T02:01:41.883Z,53.07
2017-11-15T02:04:08.878Z,44.63
2017-11-15T02:06:35.130Z,47.17
2017-11-15T02:09:01.338Z,47.10
2017-11-15T02:11:27.575Z,45.10
2017-11-15T02:13:53.773Z,47.60
2017-11-15T02:16:20.030Z,50.30
2017-11-15T02:18:46.276Z,48.00
2017-11-15T02:21:12.501Z,45.90
2017-11-15T02:23:38.730Z,42.77
2017-11-15T02:26:04.938Z,46.00
2017-11-15T02:28:31.186Z,43.33
2017-11-15T02:30:57.404Z,49.47
2017-11-15T02:33:23.650Z,52.37
2017-11-15T02:35:49.868Z,47.17
2017-11-15T02:38:16.102Z,46.00
2017-11-15T02:40:42.355Z,44.43
2017-11-15T02:43:08.610Z,50.77
2017-11-15T02:45:34.826Z,53.97
2017-11-15T02:48:01.043Z,50.27
2017-11-15T02:50:27.630Z,46.43
2017-11-15T02:52:53.854Z,50.50
2017-11-15T02:55:20.102Z,51.33
2017-11-15T02:57:46.314Z,49.73
2017-11-15T03:00:13.954Z,49.53
2017-11-15T03:02:40.173Z,47.13
2017-11-15T03:05:06.395Z,47.57
2017-11-15T03:07:32.598Z,46.63
2017-11-15T03:09:59.560Z,57.30
2017-11-15T03:12:26.518Z,46.87
2017-11-15T03:14:52.759Z,40.80
2017-11-15T03:17:18.988Z,39.90
2017-11-15T03:19:45.234Z,44.70
2017-11-15T03:22:11.439Z,39.50
2017-11-15T03:24:37.699Z,38.87
2017-11-15T03:27:03.918Z,37.00
2017-11-15T03:29:30.139Z,45.30
2017-11-15T03:31:56.339Z,37.37
2017-11-15T03:34:22.563Z,39.90
2017-11-15T03:36:48.750Z,37.23
2017-11-15T03:39:14.975Z,41.20
2017-11-15T03:41:41.282Z,39.47
2017-11-15T03:44:07.519Z,40.00
2017-11-15T03:46:34.466Z,41.00
2017-11-15T03:49:01.450Z,44.87
2017-11-15T03:51:28.374Z,43.07
2017-11-15T03:53:54.619Z,38.57
2017-11-15T03:56:21.549Z,38.70
2017-11-15T03:58:47.754Z,41.10
2017-11-15T04:01:13.950Z,43.00
2017-11-15T04:03:40.161Z,39.13
2017-11-15T04:06:07.099Z,41.57
2017-11-15T04:08:34.061Z,36.57
2017-11-15T04:11:00.376Z,43.63
2017-11-15T04:13:27.330Z,39.20
2017-11-15T04:15:54.269Z,41.17
2017-11-15T04:18:21.209Z,38.03
2017-11-15T04:20:48.130Z,35.07
2017-11-15T04:23:14.345Z,40.00
2017-11-15T04:25:41.310Z,37.70
2017-11-15T04:28:07.519Z,40.20
2017-11-15T04:30:33.746Z,35.83
2017-11-15T04:33:00.029Z,32.90
2017-11-15T04:35:26.262Z,36.07
2017-11-15T04:37:52.482Z,34.60
2017-11-15T04:40:18.702Z,34.60
2017-11-15T04:42:45.637Z,34.70
2017-11-15T04:45:12.620Z,36.53
2017-11-15T04:47:38.837Z,34.80
2017-11-15T04:50:05.073Z,39.30
2017-11-15T04:52:31.304Z,43.90
2017-11-15T04:54:57.568Z,42.03
2017-11-15T04:57:23.875Z,42.77
2017-11-15T04:59:50.130Z,42.17
2017-11-15T05:02:16.328Z,40.73
2017-11-15T05:04:42.535Z,38.20
2017-11-15T05:07:08.730Z,38.00
2017-11-15T05:09:35.693Z,46.20
2017-11-15T05:12:02.629Z,40.30
2017-11-15T05:14:29.601Z,37.60
2017-11-15T05:16:55.805Z,44.53
2017-11-15T05:19:22.798Z,37.30
2017-11-15T05:21:49.001Z,40.33
2017-11-15T05:24:15.247Z,39.40
2017-11-15T05:26:41.466Z,41.73
2017-11-15T05:29:07.697Z,42.77
2017-11-15T05:31:33.894Z,40.77
2017-11-15T05:34:00.875Z,39.07
2017-11-15T05:36:27.082Z,37.90
2017-11-15T05:38:53.325Z,40.10
2017-11-15T05:41:19.509Z,38.67
2017-11-15T05:43:45.730Z,41.40
2017-11-15T05:46:11.927Z,40.10
2017-11-15T05:48:38.175Z,43.63
2017-11-15T05:51:04.363Z,43.30
2017-11-15T05:53:30.595Z,41.70
2017-11-15T05:55:57.961Z,40.43
2017-11-15T05:58:24.188Z,38.60
2017-11-15T06:00:50.395Z,37.03
2017-11-15T06:03:16.635Z,39.87
2017-11-15T06:05:42.834Z,38.97
2017-11-15T06:08:09.790Z,41.53
2017-11-15T06:10:36.099Z,37.63
2017-11-15T06:13:03.200Z,41.50
2017-11-15T06:15:29.360Z,40.50
2017-11-15T06:17:55.721Z,45.47
2017-11-15T06:20:21.893Z,43.90
2017-11-15T06:22:48.192Z,50.30
2017-11-15T06:25:14.375Z,48.83
2017-11-15T06:27:40.611Z,44.43
2017-11-15T06:30:07.690Z,44.00
2017-11-15T06:32:33.838Z,39.43
2017-11-15T06:35:00.022Z,47.57
2017-11-15T06:37:27.042Z,55.67
2017-11-15T06:39:53.226Z,48.10
2017-11-15T06:42:19.450Z,47.43
2017-11-15T06:44:45.657Z,43.73
2017-11-15T06:47:12.602Z,50.70
2017-11-15T06:49:39.562Z,49.27
2017-11-15T06:52:05.763Z,50.27
2017-11-15T06:54:32.729Z,44.97
2017-11-15T06:56:58.925Z,46.83
2017-11-15T06:59:25.153Z,48.47
2017-11-15T07:01:51.359Z,52.60
2017-11-15T07:04:17.571Z,46.07
2017-11-15T07:06:43.758Z,48.37
2017-11-15T07:09:10.730Z,44.70
2017-11-15T07:11:36.914Z,53.60
2017-11-15T07:14:03.130Z,54.20
2017-11-15T07:16:29.331Z,53.03
2017-11-15T07:18:55.532Z,46.80
2017-11-15T07:21:21.847Z,53.70
2017-11-15T07:23:48.806Z,52.47
2017-11-15T07:26:15.006Z,54.30
2017-11-15T07:28:41.955Z,54.90
2017-11-15T07:31:08.886Z,59.57
2017-11-15T07:33:35.107Z,58.73
2017-11-15T07:36:01.302Z,60.60
2017-11-15T07:38:27.541Z,56.20
2017-11-15T07:40:53.734Z,57.63
2017-11-15T07:43:19.959Z,47.97
2017-11-15T07:45:46.159Z,55.33
2017-11-15T07:48:12.373Z,53.13
2017-11-15T07:50:38.564Z,49.63
2017-11-15T07:53:04.786Z,55.17
2017-11-15T07:55:30.981Z,53.97
2017-11-15T07:57:57.931Z,60.83
2017-11-15T08:00:24.878Z,60.90
2017-11-15T08:02:51.834Z,58.40
2017-11-15T08:05:18.027Z,50.47
2017-11-15T08:07:44.235Z,56.90
2017-11-15T08:10:10.431Z,51.77
2017-11-15T08:12:36.676Z,52.87
2017-11-15T08:15:02.881Z,58.10
2017-11-15T08:17:29.126Z,56.50
2017-11-15T08:19:55.378Z,51.70
2017-11-15T08:22:21.579Z,53.97
2017-11-15T08:24:47.779Z,62.00
2017-11-15T08:27:13.986Z,52.37
2017-11-15T08:29:40.181Z,51.13
2017-11-15T08:32:06.406Z,59.13
2017-11-15T08:34:32.602Z,54.27
2017-11-15T08:36:58.802Z,55.10
2017-11-15T08:39:25.754Z,58.27
2017-11-15T08:41:52.714Z,60.33
2017-11-15T08:44:18.927Z,56.23
2017-11-15T08:46:45.901Z,63.77
2017-11-15T08:49:12.098Z,58.20
2017-11-15T08:51:39.087Z,61.03
2017-11-15T08:54:05.296Z,63.80
2017-11-15T08:56:31.509Z,64.57
2017-11-15T08:58:58.478Z,67.10
2017-11-15T09:01:24.696Z,64.83
2017-11-15T09:03:50.931Z,77.63
2017-11-15T09:06:17.154Z,65.30
2017-11-15T09:08:43.382Z,60.40
2017-11-15T09:11:09.573Z,68.60
2017-11-15T09:13:35.785Z,56.20
2017-11-15T09:16:02.002Z,69.03
2017-11-15T09:18:28.218Z,66.97
2017-11-15T09:20:54.418Z,55.13
2017-11-15T09:23:20.643Z,61.67
2017-11-15T09:25:46.843Z,64.53
2017-11-15T09:28:13.059Z,61.90
2017-11-15T09:30:39.271Z,67.10
2017-11-15T09:33:05.511Z,63.47
2017-11-15T09:35:31.698Z,62.03
2017-11-15T09:37:57.927Z,52.87
2017-11-15T09:40:24.129Z,53.77
2017-11-15T09:42:50.347Z,51.20
2017-11-15T09:45:17.278Z,48.63
2017-11-15T09:47:43.570Z,55.90
2017-11-15T09:50:09.774Z,57.20
2017-11-15T09:52:36.053Z,53.67
2017-11-15T09:55:02.324Z,57.90
2017-11-15T09:57:28.563Z,54.70
2017-11-15T09:59:54.775Z,64.50
2017-11-15T10:02:20.998Z,57.77
2017-11-15T10:04:47.939Z,55.00
2017-11-15T10:07:14.887Z,57.37
2017-11-15T10:09:42.570Z,62.47
2017-11-15T10:12:09.088Z,60.90
2017-11-15T10:14:35.320Z,60.50
2017-11-15T10:17:05.219Z,64.67
2017-11-15T10:19:34.727Z,59.50
2017-11-15T10:22:04.094Z,56.93
2017-11-15T10:24:32.411Z,62.10
2017-11-15T10:27:02.727Z,64.37
2017-11-15T10:29:32.187Z,59.87
2017-11-15T10:32:01.220Z,56.57
2017-11-15T10:34:31.036Z,56.50
2017-11-15T10:37:00.081Z,59.00
2017-11-15T10:39:29.883Z,58.63
2017-11-15T10:41:58.601Z,60.10
2017-11-15T10:44:28.613Z,52.43
2017-11-15T10:46:57.622Z,69.97
2017-11-15T10:49:27.545Z,55.50
2017-11-15T10:51:57.124Z,62.93
2017-11-15T10:54:25.850Z,59.70
2017-11-15T10:56:54.142Z,66.00
2017-11-15T10:59:20.390Z,58.47
2017-11-15T11:01:46.629Z,52.47
2017-11-15T11:04:13.057Z,58.60
2017-11-15T11:06:39.345Z,59.17
2017-11-15T11:09:05.567Z,57.43
2017-11-15T11:11:32.546Z,50.87
2017-11-15T11:13:58.738Z,59.33
2017-11-15T11:16:24.982Z,52.13
2017-11-15T11:18:51.935Z,54.83
2017-11-15T11:21:18.181Z,60.30
2017-11-15T11:23:44.437Z,49.93
2017-11-15T11:26:10.658Z,54.43
2017-11-15T11:28:36.879Z,53.87
2017-11-15T11:31:03.113Z,51.70
2017-11-15T11:33:29.341Z,48.87
2017-11-15T11:35:55.545Z,49.80
2017-11-15T11:38:21.739Z,51.00
2017-11-15T11:40:47.935Z,60.17
2017-11-15T11:43:14.114Z,48.17
2017-11-15T11:45:40.393Z,45.30
2017-11-15T11:48:06.574Z,49.57
2017-11-15T11:50:32.801Z,49.00
2017-11-15T11:52:59.722Z,43.53
2017-11-15T11:55:26.675Z,49.37
2017-11-15T11:57:53.770Z,50.10
2017-11-15T12:00:20.806Z,45.97
2017-11-15T12:02:46.998Z,44.00
2017-11-15T12:05:13.957Z,42.43
2017-11-15T12:07:40.167Z,45.87
2017-11-15T12:10:07.561Z,43.33
2017-11-15T12:12:33.830Z,38.60
2017-11-15T12:15:00.044Z,45.73
2017-11-15T12:17:26.258Z,37.30
2017-11-15T12:19:52.490Z,41.20
2017-11-15T12:22:18.733Z,39.50
2017-11-15T12:24:44.957Z,42.20
2017-11-15T12:27:11.168Z,42.60
2017-11-15T12:32:10.198Z,37.97
2017-11-15T12:34:36.411Z,39.93
2017-11-15T12:37:02.720Z,42.23
2017-11-15T12:39:28.973Z,32.93
2017-11-15T12:41:55.230Z,33.67
2017-11-15T12:44:21.462Z,38.90
2017-11-15T12:46:47.805Z,42.30
2017-11-15T12:49:14.788Z,39.00
2017-11-15T12:51:41.018Z,43.90
2017-11-15T12:54:07.234Z,40.60
2017-11-15T12:56:33.461Z,41.43
2017-11-15T12:58:59.642Z,39.27
2017-11-15T13:01:25.924Z,39.80
2017-11-15T13:03:52.100Z,45.77
2017-11-15T13:06:18.331Z,45.77
2017-11-15T13:08:44.523Z,51.83
2017-11-15T13:11:10.774Z,45.70
2017-11-15T13:13:37.014Z,49.10
2017-11-15T13:16:03.350Z,48.73
2017-11-15T13:18:29.665Z,51.27
2017-11-15T13:20:55.886Z,50.10
2017-11-15T13:23:22.107Z,53.70
2017-11-15T13:25:48.322Z,50.87
2017-11-15T13:28:14.593Z,54.77
2017-11-15T13:30:40.806Z,49.90
2017-11-15T13:33:07.020Z,45.30
2017-11-15T13:35:33.262Z,44.57
2017-11-15T13:37:59.578Z,49.00
2017-11-15T13:40:25.829Z,51.63
2017-11-15T13:42:52.042Z,47.03
2017-11-15T13:45:18.297Z,43.23
2017-11-15T13:47:44.501Z,42.60
2017-11-15T13:50:10.739Z,42.23
2017-11-15T13:52:37.039Z,42.43
2017-11-15T13:55:03.290Z,38.50
2017-11-15T13:57:29.507Z,46.20
2017-11-15T13:59:56.134Z,48.17
2017-11-15T14:02:22.310Z,43.33
2017-11-15T14:04:49.253Z,39.60
2017-11-15T14:07:15.430Z,43.57
2017-11-15T14:09:41.612Z,38.97
2017-11-15T14:12:08.566Z,44.70
2017-11-15T14:14:35.501Z,43.47
2017-11-15T14:17:02.455Z,41.40
2017-11-15T14:19:29.438Z,40.83
2017-11-15T14:21:55.650Z,37.97
2017-11-15T14:24:21.850Z,38.13
2017-11-15T14:26:48.810Z,40.40
2017-11-15T14:29:15.000Z,36.60
2017-11-15T14:31:41.201Z,37.23
2017-11-15T14:34:07.431Z,40.67
2017-11-15T14:36:33.641Z,41.23
2017-11-15T14:38:59.849Z,37.17
2017-11-15T14:41:26.809Z,40.10
2017-11-15T14:43:52.995Z,37.80
2017-11-15T14:46:19.206Z,40.37
2017-11-15T14:48:45.407Z,34.40
2017-11-15T14:51:11.610Z,38.23
2017-11-15T14:53:37.814Z,42.60
2017-11-15T14:56:04.771Z,38.43
2017-11-15T14:58:31.744Z,38.13
2017-11-15T15:00:58.033Z,42.03
2017-11-15T15:03:24.270Z,41.00
2017-11-15T15:05:51.334Z,43.90
2017-11-15T15:08:17.542Z,34.90
2017-11-15T15:10:44.512Z,39.67
2017-11-15T15:13:10.750Z,40.03
2017-11-15T15:15:37.066Z,36.13
2017-11-15T15:18:03.291Z,38.43
2017-11-15T15:20:29.577Z,40.40
2017-11-15T15:22:55.789Z,31.53
2017-11-15T15:25:22.022Z,36.50
2017-11-15T15:27:48.246Z,35.90
2017-11-15T15:30:14.474Z,36.97
2017-11-15T15:32:40.665Z,38.83
2017-11-15T15:35:07.070Z,33.70
2017-11-15T15:37:33.250Z,39.40
2017-11-15T15:39:59.499Z,34.53
2017-11-15T15:42:25.767Z,37.57
2017-11-15T15:44:52.781Z,34.30
2017-11-15T15:47:18.993Z,32.40
2017-11-15T15:49:45.211Z,39.70
2017-11-15T15:52:11.412Z,34.70
2017-11-15T15:54:37.598Z,40.87
2017-11-15T15:57:03.920Z,35.70
2017-11-15T15:59:30.124Z,36.17
2017-11-15T16:01:56.356Z,33.97
2017-11-15T16:04:22.580Z,41.23
2017-11-15T16:06:48.794Z,38.13
2017-11-15T16:09:15.037Z,35.23
2017-11-15T16:11:41.256Z,37.10
2017-11-15T16:14:07.535Z,36.50
2017-11-15T16:16:33.748Z,37.13
2017-11-15T16:19:15.165Z,37.33
2017-11-15T16:21:42.102Z,37.47
2017-11-15T16:24:08.360Z,35.90
2017-11-15T16:26:34.904Z,33.00
2017-11-15T16:29:01.267Z,35.40
2017-11-15T16:31:27.595Z,43.43
2017-11-15T16:33:54.040Z,35.80
2017-11-15T16:36:20.276Z,42.73
2017-11-15T16:38:47.238Z,35.33
2017-11-15T16:41:14.198Z,37.90
2017-11-15T16:43:40.416Z,37.77
2017-11-15T16:46:07.759Z,38.67
2017-11-15T16:48:34.872Z,37.37
2017-11-15T16:51:01.305Z,33.80
2017-11-15T16:53:27.838Z,35.90
2017-11-15T16:55:54.865Z,35.00
2017-11-15T16:58:22.738Z,36.67
2017-11-15T17:00:49.493Z,38.53
2017-11-15T17:03:15.962Z,43.30
2017-11-15T17:05:42.622Z,39.53
2017-11-15T17:08:09.219Z,41.00
2017-11-15T17:10:36.102Z,42.10
2017-11-15T17:13:03.062Z,40.37
2017-11-15T17:15:29.370Z,39.13
2017-11-15T17:17:55.598Z,40.23
2017-11-15T17:20:22.565Z,36.27
2017-11-15T17:22:48.818Z,40.03
2017-11-15T17:25:15.067Z,47.17
2017-11-15T17:27:41.413Z,42.60
2017-11-15T17:30:07.759Z,45.93
2017-11-15T17:32:34.957Z,41.30
2017-11-15T17:35:01.355Z,43.30
2017-11-15T17:37:27.606Z,41.03
2017-11-15T17:39:53.867Z,45.60
2017-11-15T17:42:20.181Z,42.57
2017-11-15T17:44:46.457Z,48.57
2017-11-15T17:47:13.443Z,50.27
2017-11-15T17:49:39.802Z,49.27
2017-11-15T17:52:05.998Z,41.07
2017-11-15T17:54:32.467Z,43.40
2017-11-15T17:56:58.689Z,42.77
2017-11-15T17:59:24.920Z,39.13
2017-11-15T18:01:51.128Z,43.67
2017-11-15T18:04:17.371Z,38.00
2017-11-15T18:06:43.598Z,39.27
2017-11-15T18:09:10.553Z,37.80
2017-11-15T18:11:36.744Z,40.50
2017-11-15T18:14:02.972Z,39.03
2017-11-15T18:16:29.158Z,38.93
2017-11-15T18:18:55.396Z,35.13
2017-11-15T18:21:22.338Z,35.40
2017-11-15T18:23:49.315Z,36.03
2017-11-15T18:26:15.558Z,47.37
2017-11-15T18:28:41.765Z,60.50
2017-11-15T18:31:07.978Z,51.20
2017-11-15T18:33:34.923Z,51.43
2017-11-15T18:36:01.146Z,67.33
2017-11-15T18:38:28.200Z,59.50
2017-11-15T18:40:54.437Z,55.80
2017-11-15T18:43:20.639Z,47.90
2017-11-15T18:45:48.117Z,41.70
2017-11-15T18:48:14.351Z,39.33
2017-11-15T18:50:44.569Z,34.03
2017-11-15T18:53:10.818Z,40.53
2017-11-15T18:55:37.065Z,38.07
2017-11-15T18:58:03.279Z,39.50
2017-11-15T19:00:29.552Z,31.80
2017-11-15T19:02:55.848Z,37.73
2017-11-15T19:05:22.124Z,38.43
2017-11-15T19:07:48.368Z,43.53
2017-11-15T19:10:14.661Z,39.93
2017-11-15T19:12:40.887Z,41.63
2017-11-15T19:15:07.217Z,42.20
2017-11-15T19:17:33.558Z,36.50
2017-11-15T19:20:00.031Z,45.83
2017-11-15T19:22:26.538Z,38.87
2017-11-15T19:24:53.069Z,39.57
2017-11-15T19:27:19.570Z,36.33
2017-11-15T19:29:46.091Z,43.80
2017-11-15T19:32:12.602Z,38.20
2017-11-15T19:34:39.123Z,43.70
2017-11-15T19:37:05.629Z,45.70
2017-11-15T19:39:32.202Z,41.30
2017-11-15T19:41:58.706Z,41.60
2017-11-15T19:44:25.269Z,43.10
2017-11-15T19:46:51.784Z,37.20
2017-11-15T19:49:18.326Z,40.53
2017-11-15T19:51:44.859Z,38.33
2017-11-15T19:54:11.414Z,41.50
2017-11-15T19:56:37.915Z,37.93
2017-11-15T19:59:04.434Z,40.23
2017-11-15T20:01:30.952Z,36.00
2017-11-15T20:03:57.474Z,32.73
2017-11-15T20:06:23.988Z,36.60
2017-11-15T20:08:50.533Z,35.90
2017-11-15T20:11:17.043Z,33.63
2017-11-15T20:13:43.518Z,31.90
2017-11-15T20:16:10.033Z,32.37
2017-11-15T20:18:36.568Z,35.00
2017-11-15T20:21:03.096Z,43.57
2017-11-15T20:23:29.629Z,43.87
2017-11-15T20:25:56.144Z,38.47
2017-11-15T20:28:22.646Z,30.37
2017-11-15T20:30:49.912Z,31.27
2017-11-15T20:33:17.227Z,29.87
2017-11-15T20:35:43.738Z,28.17
2017-11-15T20:38:10.951Z,33.50
2017-11-15T20:40:37.517Z,24.53
2017-11-15T20:43:04.081Z,30.40
2017-11-15T20:45:30.576Z,26.03
2017-11-15T20:47:57.012Z,29.93
2017-11-15T20:50:23.417Z,26.70
2017-11-15T20:52:49.799Z,27.17
2017-11-15T20:55:16.161Z,29.53
2017-11-15T20:57:42.524Z,30.33
2017-11-15T21:00:09.638Z,29.30
2017-11-15T21:02:35.938Z,31.47
2017-11-15T21:05:02.995Z,26.03
2017-11-15T21:07:29.260Z,26.30
2017-11-15T21:09:55.521Z,28.20
2017-11-15T21:12:21.806Z,32.10
2017-11-15T21:14:48.784Z,32.33
2017-11-15T21:17:14.989Z,28.20
2017-11-15T21:19:41.214Z,26.73
2017-11-15T21:22:07.426Z,25.23
2017-11-15T21:24:33.822Z,25.10
2017-11-15T21:27:00.036Z,26.17
2017-11-15T21:29:26.467Z,23.97
2017-11-15T21:31:52.666Z,26.20
2017-11-15T21:34:18.898Z,23.00
2017-11-15T21:36:45.107Z,24.37
2017-11-15T21:39:11.338Z,26.17
2017-11-15T21:41:37.622Z,25.40
2017-11-15T21:44:03.852Z,25.10
2017-11-15T21:46:30.806Z,27.70
2017-11-15T21:48:57.052Z,24.40
2017-11-15T21:51:24.006Z,25.63
2017-11-15T21:53:50.247Z,26.03
2017-11-15T21:56:16.466Z,26.93
2017-11-15T21:58:42.691Z,24.43
2017-11-15T22:01:08.905Z,28.40
2017-11-15T22:03:35.907Z,23.90
2017-11-15T22:06:02.125Z,31.23
2017-11-15T22:08:28.359Z,30.30
2017-11-15T22:10:54.549Z,26.67
2017-11-15T22:13:20.782Z,27.80
2017-11-15T22:15:46.970Z,26.10
2017-11-15T22:18:13.941Z,28.57
2017-11-15T22:20:40.215Z,27.90
2017-11-15T22:23:07.225Z,28.60
2017-11-15T22:25:33.442Z,31.13
2017-11-15T22:27:59.689Z,30.57
2017-11-15T22:30:25.867Z,29.13
2017-11-15T22:32:52.103Z,29.10
2017-11-15T22:35:18.313Z,27.60
2017-11-15T22:37:44.548Z,33.20
2017-11-15T22:40:10.771Z,29.70
2017-11-15T22:42:37.018Z,31.00
2017-11-15T22:45:04.066Z,30.00
2017-11-15T22:47:30.342Z,30.27
2017-11-15T22:49:56.912Z,30.63
2017-11-15T22:52:23.138Z,29.90
2017-11-15T22:54:49.347Z,26.90
2017-11-15T22:57:15.571Z,30.77
2017-11-15T22:59:41.766Z,31.30
2017-11-15T23:02:08.000Z,30.30
2017-11-15T23:04:34.301Z,34.17
2017-11-15T23:07:01.369Z,34.23
2017-11-15T23:09:27.598Z,33.23
2017-11-15T23:11:53.844Z,31.27
2017-11-15T23:14:20.115Z,29.33
2017-11-15T23:16:46.335Z,30.23
2017-11-15T23:19:12.687Z,31.90
2017-11-15T23:21:38.907Z,33.67
2017-11-15T23:24:05.146Z,29.27
2017-11-15T23:26:31.363Z,34.03
2017-11-15T23:28:57.579Z,33.57
2017-11-15T23:31:23.902Z,34.03
2017-11-15T23:33:50.142Z,38.93
2017-11-15T23:36:16.390Z,37.20
2017-11-15T23:38:42.704Z,37.10
2017-11-15T23:41:08.950Z,36.07
2017-11-15T23:43:35.372Z,40.60
2017-11-15T23:46:02.687Z,30.23
2017-11-15T23:48:29.149Z,29.40
2017-11-15T23:50:55.653Z,60.93
2017-11-15T23:53:22.129Z,36.10
2017-11-15T23:55:49.175Z,33.60
2017-11-15T23:58:15.397Z,36.57
